Terminal Aerodrome Forecast
Issued by NWS

Home | Current Version | Previous Version | Text Only | Print | Product List | Glossary On
Versions: 1 2 3 4 5 6 7 8 9 10 11 12 13 14 15
000
FTUS41 KCAR 250006 AAA
TAFPQI
TAF AMD
KPQI 250006Z 2500/2524 28006KT P6SM FEW060 SCT120
      TEMPO 2500/2502 -SHRA BKN060
     FM251500 27009KT P6SM FEW050 SCT150
     FM252000 27009KT P6SM VCSH BKN060=

USA.gov is the U.S. government's official web portal to all federal, state and local government web resources and services.